createdAt,value
2022-08-08T00:00:50.194Z,14.94
2022-08-08T00:02:58.944Z,14.95
2022-08-08T00:06:28.413Z,15.00
2022-08-08T00:09:53.453Z,14.95
2022-08-08T00:13:10.477Z,14.85
2022-08-08T00:16:24.322Z,14.76
2022-08-08T00:19:36.987Z,14.78
2022-08-08T00:22:48.103Z,14.77
2022-08-08T00:25:57.392Z,14.76
2022-08-08T00:29:09.783Z,14.79
2022-08-08T00:32:35.023Z,14.69
2022-08-08T00:35:52.018Z,14.53
2022-08-08T00:41:08.010Z,14.44
2022-08-08T00:43:11.942Z,14.38
2022-08-08T00:46:58.622Z,14.33
2022-08-08T00:50:52.414Z,14.33
2022-08-08T00:54:28.890Z,14.27
2022-08-08T00:58:14.705Z,14.19
2022-08-08T01:01:38.440Z,14.16
2022-08-08T01:05:59.529Z,14.08
2022-08-08T01:09:54.340Z,13.97
2022-08-08T01:13:43.673Z,13.79
2022-08-08T01:17:51.667Z,13.77
2022-08-08T01:22:10.128Z,13.64
2022-08-08T01:25:40.082Z,13.66
2022-08-08T01:29:35.440Z,13.65
2022-08-08T01:33:27.696Z,13.80
2022-08-08T01:37:21.965Z,13.78
2022-08-08T01:40:55.200Z,13.77
2022-08-08T01:44:17.366Z,13.75
2022-08-08T01:48:16.120Z,13.77
2022-08-08T01:51:48.645Z,13.78
2022-08-08T01:55:46.044Z,13.81
2022-08-08T01:58:46.465Z,13.79
2022-08-08T02:02:13.957Z,13.76
2022-08-08T02:05:56.725Z,13.75
2022-08-08T02:10:01.704Z,13.71
2022-08-08T02:12:54.481Z,13.54
2022-08-08T02:16:20.977Z,13.46
2022-08-08T02:20:07.632Z,13.35
2022-08-08T02:23:16.253Z,13.34
2022-08-08T02:26:31.205Z,13.28
2022-08-08T02:29:52.718Z,13.23
2022-08-08T02:33:41.437Z,13.17
2022-08-08T02:37:52.996Z,13.09
2022-08-08T02:40:49.865Z,13.02
2022-08-08T02:44:39.320Z,12.98
2022-08-08T02:48:28.555Z,12.93
2022-08-08T02:51:59.723Z,12.89
2022-08-08T02:56:03.224Z,12.89
2022-08-08T03:00:01.746Z,12.90
2022-08-08T03:05:04.163Z,12.76
2022-08-08T03:07:59.334Z,12.75
2022-08-08T03:12:01.045Z,12.74
2022-08-08T03:15:56.685Z,12.75
2022-08-08T03:19:26.701Z,12.75
2022-08-08T03:22:38.908Z,12.75
2022-08-08T03:25:52.004Z,12.72
2022-08-08T03:29:03.365Z,12.76
2022-08-08T03:32:29.155Z,12.78
2022-08-08T03:35:39.971Z,12.78
2022-08-08T03:38:55.673Z,12.90
2022-08-08T03:42:27.292Z,13.15
2022-08-08T03:46:06.817Z,13.20
2022-08-08T03:49:26.557Z,13.26
2022-08-08T03:52:26.853Z,13.22
2022-08-08T03:55:55.542Z,13.14
2022-08-08T03:59:00.508Z,13.10
2022-08-08T04:02:36.623Z,13.18
2022-08-08T04:05:49.663Z,13.37
2022-08-08T04:08:57.206Z,13.45
2022-08-08T04:12:04.132Z,13.50
2022-08-08T04:15:22.260Z,13.57
2022-08-08T04:18:28.271Z,13.63
2022-08-08T04:21:38.084Z,13.69
2022-08-08T04:24:48.724Z,13.68
2022-08-08T04:28:35.140Z,13.72
2022-08-08T04:31:30.668Z,13.70
2022-08-08T04:34:58.274Z,13.77
2022-08-08T04:38:09.594Z,13.81
2022-08-08T04:41:21.733Z,13.86
2022-08-08T04:44:27.956Z,13.91
2022-08-08T04:47:46.448Z,13.93
2022-08-08T04:50:55.458Z,13.95
2022-08-08T04:54:40.110Z,14.03
2022-08-08T04:57:34.330Z,14.03
2022-08-08T05:00:40.264Z,14.00
2022-08-08T05:04:09.876Z,14.14
2022-08-08T05:07:18.798Z,14.15
2022-08-08T05:10:28.230Z,14.14
2022-08-08T05:13:34.234Z,14.33
2022-08-08T05:16:50.925Z,14.47
2022-08-08T05:20:14.997Z,14.65
2022-08-08T05:23:21.253Z,14.70
2022-08-08T05:26:27.599Z,14.77
2022-08-08T05:29:35.605Z,14.91
2022-08-08T05:32:43.458Z,15.05
2022-08-08T05:35:55.150Z,15.21
2022-08-08T05:39:03.074Z,15.42
2022-08-08T05:42:09.480Z,15.51
2022-08-08T05:45:25.519Z,15.58
2022-08-08T05:48:39.066Z,15.80
2022-08-08T05:51:51.366Z,15.98
2022-08-08T05:55:08.899Z,16.14
2022-08-08T05:58:20.355Z,16.21
2022-08-08T06:01:52.720Z,16.35
2022-08-08T06:05:01.824Z,16.52
2022-08-08T06:08:33.303Z,16.76
2022-08-08T06:11:45.932Z,17.04
2022-08-08T06:14:51.979Z,17.29
2022-08-08T06:18:20.586Z,17.52
2022-08-08T06:21:33.120Z,17.68
2022-08-08T06:24:56.222Z,17.99
2022-08-08T06:28:12.134Z,18.18
2022-08-08T06:31:21.838Z,18.50
2022-08-08T06:34:40.601Z,18.74
2022-08-08T06:37:50.815Z,18.64
2022-08-08T06:41:13.377Z,18.71
2022-08-08T06:44:25.437Z,19.07
2022-08-08T06:47:52.123Z,19.04
2022-08-08T06:51:07.641Z,19.20
2022-08-08T06:54:15.681Z,19.38
2022-08-08T06:57:29.468Z,19.59
2022-08-08T07:00:52.094Z,19.62
2022-08-08T07:04:37.900Z,19.30
2022-08-08T07:07:39.354Z,19.73
2022-08-08T07:10:51.532Z,20.16
2022-08-08T07:14:02.058Z,20.07
2022-08-08T07:17:19.799Z,20.32
2022-08-08T07:20:29.613Z,20.86
2022-08-08T07:24:01.388Z,21.04
2022-08-08T07:27:16.715Z,20.60
2022-08-08T07:30:26.616Z,20.71
2022-08-08T07:33:37.977Z,20.64
2022-08-08T07:37:02.571Z,21.30
2022-08-08T07:40:29.223Z,21.59
2022-08-08T07:43:41.755Z,21.72
2022-08-08T07:46:58.294Z,21.41
2022-08-08T07:50:05.027Z,21.76
2022-08-08T07:53:52.411Z,22.13
2022-08-08T07:56:55.252Z,21.91
2022-08-08T08:00:15.783Z,21.34
2022-08-08T08:03:41.166Z,22.07
2022-08-08T08:06:51.436Z,22.83
2022-08-08T08:09:58.596Z,22.63
2022-08-08T08:13:25.623Z,23.15
2022-08-08T08:16:50.472Z,22.80
2022-08-08T08:20:04.581Z,22.05
2022-08-08T08:23:10.912Z,21.84
2022-08-08T08:26:27.631Z,21.56
2022-08-08T08:29:35.705Z,22.77
2022-08-08T08:32:50.987Z,22.90
2022-08-08T08:36:19.724Z,23.45
2022-08-08T08:39:59.363Z,22.79
2022-08-08T08:42:52.652Z,22.75
2022-08-08T08:46:03.601Z,22.15
2022-08-08T08:49:12.153Z,22.28
2022-08-08T08:52:22.322Z,22.67
2022-08-08T08:55:39.439Z,22.92
2022-08-08T08:58:50.219Z,23.52
2022-08-08T09:02:06.008Z,24.03
2022-08-08T09:05:48.875Z,23.47
2022-08-08T09:08:49.859Z,22.95
2022-08-08T09:12:02.390Z,22.84
2022-08-08T09:15:24.161Z,22.73
2022-08-08T09:18:44.758Z,22.62
2022-08-08T09:21:57.375Z,23.01
2022-08-08T09:25:12.698Z,23.26
2022-08-08T09:28:35.470Z,24.07
2022-08-08T09:31:56.949Z,23.96
2022-08-08T09:35:09.273Z,24.34
2022-08-08T09:38:23.161Z,24.36
2022-08-08T09:42:14.559Z,24.49
2022-08-08T09:45:15.476Z,25.48
2022-08-08T09:48:32.362Z,24.26
2022-08-08T09:52:07.504Z,23.90
2022-08-08T09:55:08.165Z,23.47
2022-08-08T09:58:25.840Z,22.76
2022-08-08T10:01:58.970Z,22.59
2022-08-08T10:05:14.437Z,22.35
2022-08-08T10:08:20.484Z,22.08
2022-08-08T10:12:25.947Z,22.03
2022-08-08T10:15:01.518Z,21.77
2022-08-08T10:18:10.554Z,21.50
2022-08-08T10:21:32.791Z,21.41
2022-08-08T10:24:47.271Z,21.18
2022-08-08T10:27:57.683Z,21.24
2022-08-08T10:31:47.257Z,21.48
2022-08-08T10:34:57.145Z,21.63
2022-08-08T10:38:07.954Z,21.62
2022-08-08T10:41:20.345Z,21.53
2022-08-08T10:44:30.787Z,21.88
2022-08-08T10:47:44.121Z,22.98
2022-08-08T10:50:53.923Z,23.37
2022-08-08T10:54:01.997Z,23.77
2022-08-08T10:57:08.927Z,24.32
2022-08-08T11:00:16.550Z,24.68
2022-08-08T11:03:37.224Z,25.06
2022-08-08T11:07:00.853Z,25.60
2022-08-08T11:10:08.820Z,26.02
2022-08-08T11:13:30.185Z,25.43
2022-08-08T11:16:37.007Z,25.22
2022-08-08T11:19:46.593Z,24.62
2022-08-08T11:23:00.109Z,24.33
2022-08-08T11:26:07.522Z,24.44
2022-08-08T11:29:15.750Z,24.91
2022-08-08T11:32:29.377Z,25.52
2022-08-08T11:35:38.419Z,26.01
2022-08-08T11:38:54.845Z,25.51
2022-08-08T11:42:01.674Z,25.78
2022-08-08T11:45:18.433Z,25.39
2022-08-08T11:48:27.881Z,24.99
2022-08-08T11:51:40.338Z,24.45
2022-08-08T11:54:55.181Z,24.30
2022-08-08T11:58:14.158Z,24.33
2022-08-08T12:01:31.807Z,25.14
2022-08-08T12:04:41.071Z,26.00
2022-08-08T12:07:49.765Z,26.23
2022-08-08T12:11:01.559Z,27.00
2022-08-08T12:14:10.951Z,26.80
2022-08-08T12:17:16.969Z,25.77
2022-08-08T12:20:23.363Z,25.20
2022-08-08T12:23:40.800Z,24.85
2022-08-08T12:26:54.648Z,24.24
2022-08-08T12:30:04.788Z,24.34
2022-08-08T12:33:20.598Z,24.40
2022-08-08T12:36:28.595Z,24.11
2022-08-08T12:40:00.515Z,24.27
2022-08-08T12:43:06.658Z,25.12
2022-08-08T12:46:19.435Z,26.37
2022-08-08T12:49:43.516Z,26.27
2022-08-08T12:52:55.776Z,25.34
2022-08-08T12:56:19.134Z,24.97
2022-08-08T12:59:44.397Z,25.10
2022-08-08T13:03:00.849Z,24.80
2022-08-08T13:06:13.845Z,25.11
2022-08-08T13:09:33.052Z,25.15
2022-08-08T13:12:46.930Z,25.31
2022-08-08T13:15:54.688Z,24.82
2022-08-08T13:19:08.045Z,25.15
2022-08-08T13:22:17.701Z,24.84
2022-08-08T13:25:25.416Z,25.27
2022-08-08T13:28:32.995Z,26.27
2022-08-08T13:31:47.439Z,25.65
2022-08-08T13:34:58.900Z,25.47
2022-08-08T13:38:08.706Z,25.59
2022-08-08T13:41:17.479Z,25.46
2022-08-08T13:44:28.223Z,25.32
2022-08-08T13:47:36.603Z,25.10
2022-08-08T13:50:50.884Z,26.14
2022-08-08T13:54:01.125Z,26.26
2022-08-08T13:57:12.318Z,25.88
2022-08-08T14:00:21.724Z,26.13
2022-08-08T14:03:53.366Z,26.29
2022-08-08T14:06:59.378Z,25.55
2022-08-08T14:10:11.659Z,25.41
2022-08-08T14:13:30.627Z,25.55
2022-08-08T14:16:49.781Z,25.53
2022-08-08T14:20:06.372Z,25.54
2022-08-08T14:23:21.336Z,25.84
2022-08-08T14:26:43.163Z,25.25
2022-08-08T14:30:00.995Z,24.73
2022-08-08T14:33:12.615Z,24.46
2022-08-08T14:36:31.679Z,24.13
2022-08-08T14:39:48.369Z,24.12
2022-08-08T14:42:59.553Z,24.28
2022-08-08T14:46:07.307Z,24.27
2022-08-08T14:49:31.776Z,23.80
2022-08-08T14:52:57.023Z,23.73
2022-08-08T14:56:04.566Z,23.94
2022-08-08T14:59:22.149Z,23.68
2022-08-08T15:02:58.191Z,23.84
2022-08-08T15:06:04.494Z,23.92
2022-08-08T15:09:09.843Z,23.92
2022-08-08T15:12:16.714Z,24.10
2022-08-08T15:16:02.977Z,24.11
2022-08-08T15:18:58.234Z,23.95
2022-08-08T15:22:04.814Z,24.09
2022-08-08T15:25:17.661Z,24.14
2022-08-08T15:28:34.917Z,24.17
2022-08-08T15:32:02.860Z,23.82
2022-08-08T15:35:05.926Z,23.63
2022-08-08T15:38:15.170Z,23.23
2022-08-08T15:41:24.586Z,23.14
2022-08-08T15:44:30.614Z,23.15
2022-08-08T15:47:36.749Z,25.57
2022-08-08T15:50:59.518Z,26.90
2022-08-08T15:54:06.192Z,27.46
2022-08-08T15:57:24.301Z,26.93
2022-08-08T16:00:29.788Z,28.01
2022-08-08T16:03:36.267Z,27.55
2022-08-08T16:06:46.743Z,28.73
2022-08-08T16:13:15.519Z,27.41
2022-08-08T16:13:35.039Z,25.39
2022-08-08T16:16:44.677Z,25.65
2022-08-08T16:19:59.804Z,24.57
2022-08-08T16:23:08.590Z,23.96
2022-08-08T16:26:19.353Z,24.21
2022-08-08T16:29:37.361Z,25.52
2022-08-08T16:32:53.213Z,26.89
2022-08-08T16:35:58.937Z,24.75
2022-08-08T16:39:16.799Z,23.90
2022-08-08T16:42:34.765Z,23.47
2022-08-08T16:46:36.206Z,25.32
2022-08-08T16:49:05.485Z,26.40
2022-08-08T16:55:02.809Z,27.22
2022-08-08T16:55:55.593Z,27.87
2022-08-08T16:59:04.978Z,28.82
2022-08-08T17:02:38.513Z,28.05
2022-08-08T17:05:44.671Z,27.05
2022-08-08T17:08:50.841Z,25.68
2022-08-08T17:12:00.674Z,24.62
2022-08-08T17:15:17.783Z,23.88
2022-08-08T17:18:25.598Z,23.24
2022-08-08T17:21:37.589Z,22.89
2022-08-08T17:24:53.652Z,22.68
2022-08-08T17:28:01.502Z,22.48
2022-08-08T17:31:44.893Z,22.23
2022-08-08T17:34:53.191Z,22.09
2022-08-08T17:37:58.454Z,22.05
2022-08-08T17:41:03.639Z,21.97
2022-08-08T17:44:13.264Z,21.97
2022-08-08T17:47:27.507Z,21.88
2022-08-08T17:50:33.587Z,21.77
2022-08-08T17:53:42.561Z,21.73
2022-08-08T17:56:51.902Z,21.68
2022-08-08T18:00:01.607Z,21.54
2022-08-08T18:03:13.591Z,21.62
2022-08-08T18:06:30.525Z,21.55
2022-08-08T18:09:38.782Z,21.55
2022-08-08T18:12:46.214Z,21.52
2022-08-08T18:16:00.033Z,21.47
2022-08-08T18:19:12.954Z,21.35
2022-08-08T18:22:50.109Z,21.24
2022-08-08T18:25:46.906Z,21.21
2022-08-08T18:28:54.762Z,21.15
2022-08-08T18:32:03.638Z,21.06
2022-08-08T18:35:15.642Z,20.97
2022-08-08T18:38:21.693Z,20.90
2022-08-08T18:41:51.107Z,20.84
2022-08-08T18:44:59.863Z,20.69
2022-08-08T18:48:07.431Z,20.61
2022-08-08T18:51:40.595Z,20.53
2022-08-08T18:54:43.096Z,20.46
2022-08-08T18:57:48.944Z,20.33
2022-08-08T19:00:54.364Z,20.27
2022-08-08T19:04:10.329Z,20.15
2022-08-08T19:07:17.444Z,20.09
2022-08-08T19:10:25.454Z,20.02
2022-08-08T19:13:53.503Z,19.94
2022-08-08T19:16:57.142Z,19.79
2022-08-08T19:20:06.192Z,19.71
2022-08-08T19:23:12.917Z,19.68
2022-08-08T19:26:29.984Z,19.58
2022-08-08T19:29:42.332Z,19.49
2022-08-08T19:32:51.137Z,19.35
2022-08-08T19:36:08.665Z,19.29
2022-08-08T19:39:16.394Z,19.21
2022-08-08T19:42:24.669Z,19.18
2022-08-08T19:45:59.032Z,19.11
2022-08-08T19:48:55.680Z,19.03
2022-08-08T19:52:02.071Z,18.98
2022-08-08T19:55:12.560Z,18.91
2022-08-08T19:58:17.593Z,18.85
2022-08-08T20:01:50.429Z,18.78
2022-08-08T20:04:48.941Z,18.76
2022-08-08T20:08:28.023Z,18.71
2022-08-08T20:11:24.754Z,18.61
2022-08-08T20:14:33.810Z,18.58
2022-08-08T20:17:43.039Z,18.55
2022-08-08T20:20:51.135Z,18.56
2022-08-08T20:23:59.221Z,18.48
2022-08-08T20:27:06.312Z,18.41
2022-08-08T20:30:52.690Z,18.38
2022-08-08T20:34:27.030Z,18.38
2022-08-08T20:37:07.249Z,18.33
2022-08-08T20:40:16.586Z,18.30
2022-08-08T20:43:43.152Z,18.24
2022-08-08T20:46:51.008Z,18.19
2022-08-08T20:49:57.908Z,18.15
2022-08-08T20:53:03.626Z,18.11
2022-08-08T20:56:14.092Z,18.07
2022-08-08T20:59:24.867Z,18.05
2022-08-08T21:02:30.356Z,18.00
2022-08-08T21:05:49.213Z,17.99
2022-08-08T21:09:04.498Z,17.90
2022-08-08T21:12:10.439Z,17.85
2022-08-08T21:16:05.120Z,17.80
2022-08-08T21:18:42.606Z,17.73
2022-08-08T21:21:56.091Z,17.74
2022-08-08T21:25:02.146Z,17.74
2022-08-08T21:28:14.903Z,17.76
2022-08-08T21:31:23.837Z,17.72
2022-08-08T21:34:49.494Z,17.70
2022-08-08T21:37:55.240Z,17.60
2022-08-08T21:41:00.362Z,17.62
2022-08-08T21:44:06.470Z,17.57
2022-08-08T21:48:04.029Z,17.56
2022-08-08T21:50:38.725Z,17.51
2022-08-08T21:54:36.378Z,17.45
2022-08-08T21:57:09.462Z,17.40
2022-08-08T22:00:15.346Z,17.36
2022-08-08T22:03:32.638Z,17.33
2022-08-08T22:06:41.428Z,17.25
2022-08-08T22:09:46.702Z,17.21
2022-08-08T22:12:53.405Z,17.15
2022-08-08T22:16:01.046Z,17.11
2022-08-08T22:19:09.103Z,17.14
2022-08-08T22:22:24.364Z,17.05
2022-08-08T22:25:41.610Z,17.02
2022-08-08T22:29:15.139Z,16.93
2022-08-08T22:32:27.777Z,16.88
2022-08-08T22:36:04.033Z,16.84
2022-08-08T22:38:59.790Z,16.77
2022-08-08T22:42:10.049Z,16.71
2022-08-08T22:45:16.414Z,16.63
2022-08-08T22:48:21.640Z,16.55
2022-08-08T22:51:29.432Z,16.50
2022-08-08T22:54:58.810Z,16.46
2022-08-08T22:58:05.792Z,16.38
2022-08-08T23:02:03.002Z,16.39
2022-08-08T23:04:37.925Z,16.37
2022-08-08T23:07:57.780Z,16.27
2022-08-08T23:11:06.483Z,16.22
2022-08-08T23:14:20.694Z,16.18
2022-08-08T23:17:30.071Z,16.08
2022-08-08T23:20:35.380Z,16.02
2022-08-08T23:23:48.812Z,15.98
2022-08-08T23:27:01.627Z,16.00
2022-08-08T23:30:09.449Z,15.95
2022-08-08T23:33:21.079Z,16.05
2022-08-08T23:36:40.336Z,16.07
2022-08-08T23:39:49.440Z,16.13
2022-08-08T23:43:04.431Z,16.14
2022-08-08T23:49:06.161Z,16.11
2022-08-08T23:49:35.505Z,16.03
2022-08-08T23:52:41.328Z,15.98
2022-08-08T23:55:50.321Z,15.91
2022-08-08T23:58:58.487Z,15.78
